createdAt,value
2023-02-14T00:28:42.407Z,41
2023-02-14T00:57:49.907Z,39
2023-02-14T01:26:54.287Z,38
2023-02-14T01:56:10.930Z,41
2023-02-14T02:25:19.920Z,41
2023-02-14T02:54:18.202Z,40
2023-02-14T03:23:25.948Z,45
2023-02-14T03:52:26.845Z,32
2023-02-14T04:21:29.376Z,32
2023-02-14T04:50:35.714Z,34
2023-02-14T05:19:27.960Z,32
2023-02-14T05:48:36.069Z,32
2023-02-14T06:17:39.809Z,35
2023-02-14T06:46:26.688Z,33
2023-02-14T07:15:26.738Z,29
2023-02-14T07:44:22.716Z,32
2023-02-14T08:13:16.022Z,35
2023-02-14T08:42:08.206Z,33
2023-02-14T09:11:07.009Z,34
2023-02-14T09:40:28.623Z,34
2023-02-14T10:09:26.046Z,38
2023-02-14T10:38:19.784Z,38
2023-02-14T11:07:27.036Z,41
2023-02-14T11:36:32.749Z,42
2023-02-14T12:05:24.313Z,43
2023-02-14T12:34:27.077Z,47
2023-02-14T13:03:11.931Z,48
2023-02-14T13:32:03.881Z,55
2023-02-14T14:00:56.422Z,58
2023-02-14T14:29:35.738Z,53
2023-02-14T14:58:34.236Z,53
2023-02-14T15:27:27.851Z,58
2023-02-14T15:56:32.283Z,64
2023-02-14T16:25:31.340Z,61
2023-02-14T16:54:19.281Z,64
2023-02-14T17:23:25.221Z,64
2023-02-14T17:52:30.884Z,67
2023-02-14T18:21:46.379Z,73
2023-02-14T18:50:41.513Z,72
2023-02-14T19:19:48.601Z,67
2023-02-14T19:48:41.462Z,62
2023-02-14T20:17:30.765Z,63
2023-02-14T20:46:29.339Z,56
2023-02-14T21:15:21.582Z,50
2023-02-14T21:44:21.020Z,50
2023-02-14T22:12:31.813Z,44
2023-02-14T22:40:55.279Z,46
2023-02-14T23:09:09.925Z,49
2023-02-14T23:37:26.286Z,47
